createdAt,value
2018-06-22T00:00:12.780Z,1015.85
2018-06-22T00:00:38.950Z,1015.87
2018-06-22T00:01:05.087Z,1015.88
2018-06-22T00:01:31.225Z,1015.87
2018-06-22T00:01:57.398Z,1015.87
2018-06-22T00:02:23.535Z,1015.89
2018-06-22T00:02:49.679Z,1015.84
2018-06-22T00:03:15.814Z,1015.85
2018-06-22T00:03:41.949Z,1015.8
2018-06-22T00:04:08.089Z,1015.81
2018-06-22T00:04:34.218Z,1015.82
2018-06-22T00:05:00.355Z,1015.82
2018-06-22T00:05:26.492Z,1015.82
2018-06-22T00:05:52.671Z,1015.78
2018-06-22T00:06:18.775Z,1015.8
2018-06-22T00:06:44.920Z,1015.83
2018-06-22T00:07:11.048Z,1015.84
2018-06-22T00:07:37.189Z,1015.86
2018-06-22T00:08:03.365Z,1015.84
2018-06-22T00:08:29.497Z,1015.82
2018-06-22T00:08:55.639Z,1015.79
2018-06-22T00:09:21.777Z,1015.77
2018-06-22T00:09:48.007Z,1015.8
2018-06-22T00:10:14.166Z,1015.83
2018-06-22T00:10:40.303Z,1015.89
2018-06-22T00:11:06.442Z,1015.82
2018-06-22T00:11:32.578Z,1015.86
2018-06-22T00:11:58.717Z,1015.85
2018-06-22T00:12:24.862Z,1015.85
2018-06-22T00:12:50.994Z,1015.87
2018-06-22T00:13:17.133Z,1015.83
2018-06-22T00:13:43.270Z,1015.82
2018-06-22T00:14:09.408Z,1015.81
2018-06-22T00:14:35.547Z,1015.86
2018-06-22T00:15:01.683Z,1015.83
2018-06-22T00:15:27.824Z,1015.8
2018-06-22T00:15:53.964Z,1015.84
2018-06-22T00:16:20.105Z,1015.81
2018-06-22T00:16:46.262Z,1015.8
2018-06-22T00:17:12.452Z,1015.79
2018-06-22T00:17:38.592Z,1015.78
2018-06-22T00:18:04.724Z,1015.77
2018-06-22T00:18:30.865Z,1015.77
2018-06-22T00:18:57.003Z,1015.74
2018-06-22T00:19:23.135Z,1015.74
2018-06-22T00:19:49.276Z,1015.71
2018-06-22T00:20:15.409Z,1015.74
2018-06-22T00:20:41.552Z,1015.73
2018-06-22T00:21:07.690Z,1015.72
2018-06-22T00:21:33.833Z,1015.69
2018-06-22T00:21:59.969Z,1015.69
2018-06-22T00:22:26.138Z,1015.73
2018-06-22T00:22:52.274Z,1015.73
2018-06-22T00:23:18.413Z,1015.7
2018-06-22T00:23:44.552Z,1015.74
2018-06-22T00:24:10.715Z,1015.69
2018-06-22T00:24:36.857Z,1015.71
2018-06-22T00:25:02.997Z,1015.71
2018-06-22T00:25:29.136Z,1015.69
2018-06-22T00:25:55.273Z,1015.67
2018-06-22T00:26:21.419Z,1015.66
2018-06-22T00:26:47.547Z,1015.62
2018-06-22T00:27:13.686Z,1015.63
2018-06-22T00:27:39.823Z,1015.66
2018-06-22T00:28:05.968Z,1015.57
2018-06-22T00:28:32.105Z,1015.6
2018-06-22T00:28:58.267Z,1015.6
2018-06-22T00:29:24.433Z,1015.62
2018-06-22T00:29:50.574Z,1015.63
2018-06-22T00:30:16.729Z,1015.63
2018-06-22T00:30:42.869Z,1015.64
2018-06-22T00:31:09.029Z,1015.59
2018-06-22T00:31:35.168Z,1015.65
2018-06-22T00:32:01.335Z,1015.62
2018-06-22T00:32:27.501Z,1015.61
2018-06-22T00:32:53.633Z,1015.64
2018-06-22T00:33:19.775Z,1015.6
2018-06-22T00:33:45.909Z,1015.62
2018-06-22T00:34:12.051Z,1015.59
2018-06-22T00:34:38.190Z,1015.61
2018-06-22T00:35:04.329Z,1015.63
2018-06-22T00:35:30.464Z,1015.63
2018-06-22T00:35:56.606Z,1015.63
2018-06-22T00:36:22.742Z,1015.57
2018-06-22T00:36:48.902Z,1015.61
2018-06-22T00:37:15.062Z,1015.57
2018-06-22T00:37:41.201Z,1015.6
2018-06-22T00:38:07.337Z,1015.62
2018-06-22T00:38:33.498Z,1015.59
2018-06-22T00:38:59.640Z,1015.61
2018-06-22T00:39:25.773Z,1015.58
2018-06-22T00:39:51.955Z,1015.59
2018-06-22T00:40:18.094Z,1015.56
2018-06-22T00:40:44.231Z,1015.58
2018-06-22T00:41:10.372Z,1015.55
2018-06-22T00:41:36.509Z,1015.54
2018-06-22T00:42:02.644Z,1015.56
2018-06-22T00:42:28.807Z,1015.54
2018-06-22T00:42:54.954Z,1015.5
2018-06-22T00:43:21.112Z,1015.5
2018-06-22T00:43:47.250Z,1015.55
2018-06-22T00:44:13.389Z,1015.52
2018-06-22T00:44:39.542Z,1015.5
2018-06-22T00:45:05.680Z,1015.5
2018-06-22T00:45:31.817Z,1015.53
2018-06-22T00:45:57.954Z,1015.52
2018-06-22T00:46:24.119Z,1015.54
2018-06-22T00:46:50.260Z,1015.5
2018-06-22T00:47:16.398Z,1015.52
2018-06-22T00:47:42.538Z,1015.46
2018-06-22T00:48:08.680Z,1015.5
2018-06-22T00:48:34.840Z,1015.51
2018-06-22T00:49:00.977Z,1015.48
2018-06-22T00:49:27.117Z,1015.5
2018-06-22T00:49:53.258Z,1015.48
2018-06-22T00:50:19.412Z,1015.48
2018-06-22T00:50:45.552Z,1015.47
2018-06-22T00:51:11.689Z,1015.46
2018-06-22T00:51:37.835Z,1015.46
2018-06-22T00:52:03.994Z,1015.49
2018-06-22T00:52:30.132Z,1015.46
2018-06-22T00:52:56.294Z,1015.45
2018-06-22T00:53:22.427Z,1015.46
2018-06-22T00:53:48.589Z,1015.43
2018-06-22T00:54:14.760Z,1015.41
2018-06-22T00:54:40.895Z,1015.47
2018-06-22T00:55:07.031Z,1015.46
2018-06-22T00:55:33.168Z,1015.44
2018-06-22T00:55:59.316Z,1015.43
2018-06-22T00:56:25.448Z,1015.47
2018-06-22T00:56:51.580Z,1015.44
2018-06-22T00:57:17.722Z,1015.4
2018-06-22T00:57:43.877Z,1015.41
2018-06-22T00:58:10.020Z,1015.4
2018-06-22T00:58:36.162Z,1015.47
2018-06-22T00:59:02.302Z,1015.48
2018-06-22T00:59:28.464Z,1015.42
2018-06-22T00:59:54.611Z,1015.47
2018-06-22T01:00:20.755Z,1015.47
2018-06-22T01:00:46.888Z,1015.48
2018-06-22T01:01:13.019Z,1015.44
2018-06-22T01:01:39.184Z,1015.46
2018-06-22T01:02:05.324Z,1015.41
2018-06-22T01:02:31.503Z,1015.46
2018-06-22T01:02:57.667Z,1015.41
2018-06-22T01:03:23.820Z,1015.43
2018-06-22T01:03:49.956Z,1015.42
2018-06-22T01:04:16.122Z,1015.37
2018-06-22T01:04:42.296Z,1015.41
2018-06-22T01:05:08.396Z,1015.41
2018-06-22T01:05:34.554Z,1015.41
2018-06-22T01:06:00.714Z,1015.39
2018-06-22T01:06:26.856Z,1015.43
2018-06-22T01:06:52.993Z,1015.39
2018-06-22T01:07:19.134Z,1015.34
2018-06-22T01:07:45.278Z,1015.35
2018-06-22T01:08:11.410Z,1015.32
2018-06-22T01:08:37.543Z,1015.32
2018-06-22T01:09:03.680Z,1015.33
2018-06-22T01:09:29.822Z,1015.32
2018-06-22T01:09:55.957Z,1015.27
2018-06-22T01:10:22.119Z,1015.31
2018-06-22T01:10:48.255Z,1015.32
2018-06-22T01:11:14.394Z,1015.31
2018-06-22T01:11:40.530Z,1015.19
2018-06-22T01:12:06.671Z,1015.29
2018-06-22T01:12:32.807Z,1015.27
2018-06-22T01:12:58.946Z,1015.25
2018-06-22T01:13:25.107Z,1015.32
2018-06-22T01:13:51.246Z,1015.28
2018-06-22T01:14:17.389Z,1015.32
2018-06-22T01:14:43.525Z,1015.28
2018-06-22T01:15:09.691Z,1015.24
2018-06-22T01:15:35.853Z,1015.34
2018-06-22T01:16:02.012Z,1015.25
2018-06-22T01:16:28.151Z,1015.28
2018-06-22T01:16:54.315Z,1015.25
2018-06-22T01:17:20.450Z,1015.25
2018-06-22T01:17:46.607Z,1015.27
2018-06-22T01:18:12.777Z,1015.28
2018-06-22T01:18:38.919Z,1015.28
2018-06-22T01:19:05.055Z,1015.27
2018-06-22T01:19:31.195Z,1015.28
2018-06-22T01:19:57.331Z,1015.23
2018-06-22T01:20:23.470Z,1015.25
2018-06-22T01:20:49.609Z,1015.18
2018-06-22T01:21:15.755Z,1015.24
2018-06-22T01:21:41.890Z,1015.27
2018-06-22T01:22:08.092Z,1015.23
2018-06-22T01:22:34.310Z,1015.26
2018-06-22T01:23:00.460Z,1015.25
2018-06-22T01:23:26.595Z,1015.28
2018-06-22T01:23:52.740Z,1015.33
2018-06-22T01:24:18.910Z,1015.29
2018-06-22T01:24:45.120Z,1015.28
2018-06-22T01:25:11.309Z,1015.33
2018-06-22T01:25:37.444Z,1015.31
2018-06-22T01:26:03.587Z,1015.27
2018-06-22T01:26:29.747Z,1015.26
2018-06-22T01:26:55.901Z,1015.28
2018-06-22T01:27:22.086Z,1015.28
2018-06-22T01:27:48.230Z,1015.24
2018-06-22T01:28:14.360Z,1015.26
2018-06-22T01:28:40.499Z,1015.18
2018-06-22T01:29:06.661Z,1015.22
2018-06-22T01:29:32.798Z,1015.22
2018-06-22T01:29:58.992Z,1015.23
2018-06-22T01:30:25.194Z,1015.28
2018-06-22T01:30:51.325Z,1015.24
2018-06-22T01:31:17.461Z,1015.21
2018-06-22T01:31:43.594Z,1015.24
2018-06-22T01:32:09.740Z,1015.28
2018-06-22T01:32:35.871Z,1015.21
2018-06-22T01:33:02.033Z,1015.18
2018-06-22T01:33:28.197Z,1015.19
2018-06-22T01:33:54.337Z,1015.15
2018-06-22T01:34:20.536Z,1015.15
2018-06-22T01:34:46.669Z,1015.13
2018-06-22T01:35:12.834Z,1015.16
2018-06-22T01:35:38.972Z,1015
2018-06-22T01:36:05.112Z,1015.19
2018-06-22T01:36:31.269Z,1015.12
2018-06-22T01:36:57.409Z,1015.14
2018-06-22T01:37:23.547Z,1015.21
2018-06-22T01:37:49.715Z,1015.15
2018-06-22T01:38:15.896Z,1015.15
2018-06-22T01:38:42.033Z,1015.15
2018-06-22T01:39:08.170Z,1015.14
2018-06-22T01:39:34.336Z,1015.09
2018-06-22T01:40:00.498Z,1015.15
2018-06-22T01:40:26.636Z,1015.09
2018-06-22T01:40:52.784Z,1015.16
2018-06-22T01:41:18.949Z,1015.18
2018-06-22T01:41:45.090Z,1015.09
2018-06-22T01:42:11.221Z,1015.17
2018-06-22T01:42:37.357Z,1015.08
2018-06-22T01:43:03.498Z,1015.06
2018-06-22T01:43:29.649Z,1015.08
2018-06-22T01:43:55.801Z,1015.15
2018-06-22T01:44:21.935Z,1014.98
2018-06-22T01:44:48.075Z,1015.08
2018-06-22T01:45:14.238Z,1015.02
2018-06-22T01:45:40.380Z,1015.05
2018-06-22T01:46:06.520Z,1015.12
2018-06-22T01:46:32.648Z,1015.09
2018-06-22T01:46:58.786Z,1015.03
2018-06-22T01:47:24.921Z,1015.01
2018-06-22T01:47:51.088Z,1015.06
2018-06-22T01:48:17.303Z,1015.05
2018-06-22T01:48:43.443Z,1015.09
2018-06-22T01:49:09.581Z,1015.02
2018-06-22T01:49:35.741Z,1015.09
2018-06-22T01:50:01.878Z,1015.05
2018-06-22T01:50:28.022Z,1015.03
2018-06-22T01:50:54.160Z,1015.03
2018-06-22T01:51:20.300Z,1015.02
2018-06-22T01:51:46.441Z,1015.03
2018-06-22T01:52:12.578Z,1014.98
2018-06-22T01:52:38.720Z,1014.99
2018-06-22T01:53:04.857Z,1014.97
2018-06-22T01:53:31.001Z,1015.06
2018-06-22T01:53:57.134Z,1014.96
2018-06-22T01:54:23.296Z,1014.96
2018-06-22T01:54:49.457Z,1014.91
2018-06-22T01:55:15.594Z,1014.92
2018-06-22T01:55:41.733Z,1015.01
2018-06-22T01:56:07.897Z,1014.93
2018-06-22T01:56:34.031Z,1014.92
2018-06-22T01:57:00.172Z,1014.91
2018-06-22T01:57:26.355Z,1014.96
2018-06-22T01:57:52.491Z,1014.92
2018-06-22T01:58:18.634Z,1014.85
2018-06-22T01:58:44.779Z,1014.99
2018-06-22T01:59:10.914Z,1014.87
2018-06-22T01:59:37.055Z,1014.89
2018-06-22T02:00:03.194Z,1014.88
2018-06-22T02:00:29.333Z,1014.89
2018-06-22T02:00:55.495Z,1015.02
2018-06-22T02:01:21.630Z,1014.89
2018-06-22T02:01:47.777Z,1014.85
2018-06-22T02:02:13.914Z,1014.87
2018-06-22T02:02:40.081Z,1014.9
2018-06-22T02:03:06.213Z,1014.94
2018-06-22T02:03:32.381Z,1014.93
2018-06-22T02:03:58.515Z,1014.84
2018-06-22T02:04:24.657Z,1014.93
2018-06-22T02:04:50.799Z,1014.98
2018-06-22T02:05:16.937Z,1014.96
2018-06-22T02:05:43.095Z,1014.9
2018-06-22T02:06:09.262Z,1014.91
2018-06-22T02:06:35.423Z,1014.91
2018-06-22T02:07:01.559Z,1014.91
2018-06-22T02:07:27.697Z,1014.93
2018-06-22T02:07:53.832Z,1014.95
2018-06-22T02:08:19.966Z,1014.93
2018-06-22T02:08:46.134Z,1014.94
2018-06-22T02:09:12.273Z,1014.97
2018-06-22T02:09:38.409Z,1014.96
2018-06-22T02:10:04.545Z,1014.96
2018-06-22T02:10:30.686Z,1014.92
2018-06-22T02:10:56.828Z,1014.94
2018-06-22T02:11:22.963Z,1014.82
2018-06-22T02:11:49.114Z,1014.9
2018-06-22T02:12:15.268Z,1014.89
2018-06-22T02:12:41.404Z,1014.93
2018-06-22T02:13:07.539Z,1014.88
2018-06-22T02:13:33.683Z,1014.9
2018-06-22T02:13:59.825Z,1014.92
2018-06-22T02:14:25.961Z,1014.83
2018-06-22T02:14:52.127Z,1014.91
2018-06-22T02:15:18.260Z,1014.9
2018-06-22T02:15:44.404Z,1014.94
2018-06-22T02:16:10.536Z,1014.98
2018-06-22T02:16:36.692Z,1014.95
2018-06-22T02:17:02.871Z,1014.89
2018-06-22T02:17:29.011Z,1014.92
2018-06-22T02:17:55.137Z,1014.93
2018-06-22T02:18:21.275Z,1014.96
2018-06-22T02:18:47.412Z,1014.94
2018-06-22T02:19:13.541Z,1014.96
2018-06-22T02:19:39.682Z,1015
2018-06-22T02:20:05.817Z,1014.92
2018-06-22T02:20:31.951Z,1014.98
2018-06-22T02:20:58.092Z,1014.93
2018-06-22T02:21:24.220Z,1014.96
2018-06-22T02:21:50.384Z,1015.02
2018-06-22T02:22:16.519Z,1014.95
2018-06-22T02:22:42.679Z,1014.94
2018-06-22T02:23:08.812Z,1014.84
2018-06-22T02:23:34.991Z,1014.95
2018-06-22T02:24:01.127Z,1014.86
2018-06-22T02:24:27.283Z,1014.91
2018-06-22T02:24:53.422Z,1014.9
2018-06-22T02:25:19.557Z,1015
2018-06-22T02:25:45.704Z,1014.94
2018-06-22T02:26:11.847Z,1014.89
2018-06-22T02:26:38.005Z,1014.92
2018-06-22T02:27:04.147Z,1014.91
2018-06-22T02:27:30.292Z,1014.87
2018-06-22T02:27:56.419Z,1014.89
2018-06-22T02:28:22.555Z,1014.88
2018-06-22T02:28:48.699Z,1014.88
2018-06-22T02:29:14.832Z,1014.83
2018-06-22T02:29:40.973Z,1014.87
2018-06-22T02:30:07.108Z,1014.82
2018-06-22T02:30:33.271Z,1014.86
2018-06-22T02:30:59.438Z,1014.87
2018-06-22T02:31:25.624Z,1014.85
2018-06-22T02:31:51.814Z,1014.8
2018-06-22T02:32:17.971Z,1014.85
2018-06-22T02:32:44.138Z,1014.86
2018-06-22T02:33:10.297Z,1014.73
2018-06-22T02:33:36.453Z,1014.8
2018-06-22T02:34:02.587Z,1014.79
2018-06-22T02:34:28.727Z,1014.7
2018-06-22T02:34:54.918Z,1014.72
2018-06-22T02:35:21.107Z,1014.76
2018-06-22T02:35:47.271Z,1014.81
2018-06-22T02:36:13.435Z,1014.78
2018-06-22T02:36:39.571Z,1014.8
2018-06-22T02:37:05.712Z,1014.84
2018-06-22T02:37:31.851Z,1014.78
2018-06-22T02:37:58.015Z,1014.8
2018-06-22T02:38:24.148Z,1014.78
2018-06-22T02:38:50.310Z,1014.74
2018-06-22T02:39:16.449Z,1014.7
2018-06-22T02:39:42.615Z,1014.72
2018-06-22T02:40:08.777Z,1014.69
2018-06-22T02:40:34.918Z,1014.7
2018-06-22T02:41:01.085Z,1014.67
2018-06-22T02:41:27.270Z,1014.71
2018-06-22T02:41:53.442Z,1014.73
2018-06-22T02:42:19.601Z,1014.77
2018-06-22T02:42:45.782Z,1014.71
2018-06-22T02:43:11.945Z,1014.68
2018-06-22T02:43:38.082Z,1014.69
2018-06-22T02:44:04.249Z,1014.75
2018-06-22T02:44:30.471Z,1014.66
2018-06-22T02:44:56.637Z,1014.76
2018-06-22T02:45:22.790Z,1014.68
2018-06-22T02:45:48.929Z,1014.67
2018-06-22T02:46:15.063Z,1014.68
2018-06-22T02:46:41.226Z,1014.71
2018-06-22T02:47:07.387Z,1014.69
2018-06-22T02:47:33.522Z,1014.7
2018-06-22T02:47:59.705Z,1014.7
2018-06-22T02:48:25.868Z,1014.72
2018-06-22T02:48:52.056Z,1014.73
2018-06-22T02:49:18.217Z,1014.76
2018-06-22T02:49:44.356Z,1014.68
2018-06-22T02:50:10.568Z,1014.75
2018-06-22T02:50:36.731Z,1014.74
2018-06-22T02:51:02.867Z,1014.76
2018-06-22T02:51:29.024Z,1014.79
2018-06-22T02:51:55.212Z,1014.77
2018-06-22T02:52:21.389Z,1014.77
2018-06-22T02:52:47.530Z,1014.82
2018-06-22T02:53:13.705Z,1014.76
2018-06-22T02:53:39.875Z,1014.82
2018-06-22T02:54:06.062Z,1014.78
2018-06-22T02:54:32.217Z,1014.87
2018-06-22T02:54:58.354Z,1014.83
2018-06-22T02:55:24.497Z,1014.85
2018-06-22T02:55:50.658Z,1014.85
2018-06-22T02:56:16.801Z,1014.82
2018-06-22T02:56:42.937Z,1014.89
2018-06-22T02:57:09.101Z,1014.8
2018-06-22T02:57:35.294Z,1014.76
2018-06-22T02:58:01.436Z,1014.78
2018-06-22T02:58:27.575Z,1014.76
2018-06-22T02:58:53.732Z,1014.74
2018-06-22T02:59:19.900Z,1014.71
2018-06-22T02:59:46.100Z,1014.77
2018-06-22T03:00:12.238Z,1014.75
2018-06-22T03:00:38.409Z,1014.75
2018-06-22T03:01:04.596Z,1014.72
2018-06-22T03:01:30.758Z,1014.79
2018-06-22T03:01:56.912Z,1014.75
2018-06-22T03:02:23.108Z,1014.72
2018-06-22T03:02:49.266Z,1014.64
2018-06-22T03:03:15.493Z,1014.64
2018-06-22T03:03:41.810Z,1014.72
2018-06-22T03:04:08.052Z,1014.66
2018-06-22T03:04:34.181Z,1014.7
2018-06-22T03:05:00.468Z,1014.66
2018-06-22T03:05:26.921Z,1014.65
2018-06-22T03:05:53.246Z,1014.65
2018-06-22T03:06:19.588Z,1014.62
2018-06-22T03:06:45.864Z,1014.64
2018-06-22T03:07:12.094Z,1014.65
2018-06-22T03:07:38.332Z,1014.63
2018-06-22T03:08:04.491Z,1014.63
2018-06-22T03:08:30.750Z,1014.65
2018-06-22T03:08:56.945Z,1014.63
2018-06-22T03:09:23.107Z,1014.6
2018-06-22T03:09:49.238Z,1014.58
2018-06-22T03:10:15.423Z,1014.57
2018-06-22T03:10:41.599Z,1014.61
2018-06-22T03:11:07.758Z,1014.55
2018-06-22T03:11:33.938Z,1014.64
2018-06-22T03:12:00.083Z,1014.56
2018-06-22T03:12:26.292Z,1014.51
2018-06-22T03:12:52.456Z,1014.61
2018-06-22T03:13:18.655Z,1014.59
2018-06-22T03:13:44.805Z,1014.49
2018-06-22T03:14:10.937Z,1014.56
2018-06-22T03:14:37.075Z,1014.59
2018-06-22T03:15:03.223Z,1014.52
2018-06-22T03:15:29.373Z,1014.57
2018-06-22T03:15:55.531Z,1014.56
2018-06-22T03:16:21.697Z,1014.56
2018-06-22T03:16:47.859Z,1014.57
2018-06-22T03:17:13.995Z,1014.55
2018-06-22T03:17:40.196Z,1014.55
2018-06-22T03:18:06.335Z,1014.64
2018-06-22T03:18:32.475Z,1014.54
2018-06-22T03:18:58.643Z,1014.62
2018-06-22T03:19:24.779Z,1014.66
2018-06-22T03:19:50.911Z,1014.54
2018-06-22T03:20:17.103Z,1014.59
2018-06-22T03:20:43.263Z,1014.61
2018-06-22T03:21:09.426Z,1014.63
2018-06-22T03:21:35.591Z,1014.56
2018-06-22T03:22:01.759Z,1014.58
2018-06-22T03:22:27.904Z,1014.58
2018-06-22T03:22:54.063Z,1014.56
2018-06-22T03:23:20.222Z,1014.57
2018-06-22T03:23:46.354Z,1014.55
2018-06-22T03:24:12.518Z,1014.59
2018-06-22T03:24:38.696Z,1014.63
2018-06-22T03:25:04.838Z,1014.64
2018-06-22T03:25:30.970Z,1014.63
2018-06-22T03:25:57.119Z,1014.65
2018-06-22T03:26:23.254Z,1014.59
2018-06-22T03:26:49.435Z,1014.58
2018-06-22T03:27:15.572Z,1014.59
2018-06-22T03:27:41.715Z,1014.6
2018-06-22T03:28:07.850Z,1014.63
2018-06-22T03:28:34.007Z,1014.55
2018-06-22T03:29:00.141Z,1014.52
2018-06-22T03:29:26.303Z,1014.64
2018-06-22T03:29:52.461Z,1014.58
2018-06-22T03:30:18.676Z,1014.61
2018-06-22T03:30:44.857Z,1014.61
2018-06-22T03:31:11.017Z,1014.6
2018-06-22T03:31:37.168Z,1014.53
2018-06-22T03:32:03.403Z,1014.59
2018-06-22T03:32:29.489Z,1014.6
2018-06-22T03:32:55.629Z,1014.52
2018-06-22T03:33:21.767Z,1014.53
2018-06-22T03:33:47.938Z,1014.53
2018-06-22T03:34:14.093Z,1014.53
2018-06-22T03:34:40.258Z,1014.52
2018-06-22T03:35:06.391Z,1014.53
2018-06-22T03:35:32.536Z,1014.51
2018-06-22T03:35:58.671Z,1014.5
2018-06-22T03:36:24.813Z,1014.53
2018-06-22T03:36:50.967Z,1014.52
2018-06-22T03:37:17.097Z,1014.59
2018-06-22T03:37:43.241Z,1014.48
2018-06-22T03:38:09.376Z,1014.45
2018-06-22T03:38:35.513Z,1014.54
2018-06-22T03:39:01.648Z,1014.54
2018-06-22T03:39:27.809Z,1014.47
2018-06-22T03:39:53.976Z,1014.49
2018-06-22T03:40:20.148Z,1014.49
2018-06-22T03:40:46.305Z,1014.54
2018-06-22T03:41:12.446Z,1014.62
2018-06-22T03:41:38.583Z,1014.45
2018-06-22T03:42:04.724Z,1014.51
2018-06-22T03:42:30.862Z,1014.49
2018-06-22T03:42:56.999Z,1014.51
2018-06-22T03:43:23.141Z,1014.58
2018-06-22T03:43:49.300Z,1014.53
2018-06-22T03:44:15.440Z,1014.54
2018-06-22T03:44:41.579Z,1014.55
2018-06-22T03:45:07.731Z,1014.49
2018-06-22T03:45:33.870Z,1014.51
2018-06-22T03:46:00.011Z,1014.55
2018-06-22T03:46:26.146Z,1014.48
2018-06-22T03:46:52.277Z,1014.5
2018-06-22T03:47:18.416Z,1014.52
2018-06-22T03:47:44.552Z,1014.49
2018-06-22T03:48:10.695Z,1014.51
2018-06-22T03:48:36.830Z,1014.5
2018-06-22T03:49:02.987Z,1014.52
2018-06-22T03:49:29.125Z,1014.47
2018-06-22T03:49:55.268Z,1014.41
2018-06-22T03:50:21.436Z,1014.45
2018-06-22T03:50:47.572Z,1014.41
2018-06-22T03:51:13.705Z,1014.45
2018-06-22T03:51:39.846Z,1014.39
2018-06-22T03:52:06.019Z,1014.38
2018-06-22T03:52:32.152Z,1014.38
2018-06-22T03:52:58.317Z,1014.41
2018-06-22T03:53:24.452Z,1014.33
2018-06-22T03:53:50.593Z,1014.29
2018-06-22T03:54:16.725Z,1014.34
2018-06-22T03:54:42.865Z,1014.37
2018-06-22T03:55:09.002Z,1014.38
2018-06-22T03:55:35.171Z,1014.42
2018-06-22T03:56:01.300Z,1014.32
2018-06-22T03:56:27.438Z,1014.36
2018-06-22T03:56:53.672Z,1014.36
2018-06-22T03:57:19.717Z,1014.36
2018-06-22T03:57:45.859Z,1014.39
2018-06-22T03:58:11.992Z,1014.41
2018-06-22T03:58:38.126Z,1014.38
2018-06-22T03:59:04.268Z,1014.35
2018-06-22T03:59:30.406Z,1014.38
2018-06-22T03:59:56.548Z,1014.49
2018-06-22T04:00:22.706Z,1014.39
2018-06-22T04:00:48.842Z,1014.43
2018-06-22T04:01:14.980Z,1014.45
2018-06-22T04:01:41.111Z,1014.45
2018-06-22T04:02:07.271Z,1014.37
2018-06-22T04:02:33.415Z,1014.38
2018-06-22T04:02:59.551Z,1014.37
2018-06-22T04:03:25.688Z,1014.38
2018-06-22T04:03:51.829Z,1014.37
2018-06-22T04:04:17.967Z,1014.38
2018-06-22T04:04:44.107Z,1014.33
2018-06-22T04:05:10.254Z,1014.36
2018-06-22T04:05:36.410Z,1014.33
2018-06-22T04:06:02.546Z,1014.35
2018-06-22T04:06:28.709Z,1014.33
2018-06-22T04:06:54.872Z,1014.27
2018-06-22T04:07:21.038Z,1014.24
2018-06-22T04:07:47.146Z,1014.17
2018-06-22T04:08:13.352Z,1014.21
2018-06-22T04:08:39.455Z,1014.18
2018-06-22T04:09:05.624Z,1014.18
2018-06-22T04:09:31.745Z,1014.17
2018-06-22T04:09:57.910Z,1014.19
2018-06-22T04:10:24.045Z,1014.14
2018-06-22T04:10:50.205Z,1014.26
2018-06-22T04:11:16.342Z,1014.22
2018-06-22T04:11:42.503Z,1014.26
2018-06-22T04:12:08.632Z,1014.23
2018-06-22T04:12:34.777Z,1014.24
2018-06-22T04:13:00.911Z,1014.27
2018-06-22T04:13:27.076Z,1014.27
2018-06-22T04:13:53.215Z,1014.25
2018-06-22T04:14:19.351Z,1014.23
2018-06-22T04:14:45.504Z,1014.16
2018-06-22T04:15:11.649Z,1014.19
2018-06-22T04:15:37.787Z,1014.26
2018-06-22T04:16:03.923Z,1014.25
2018-06-22T04:16:30.060Z,1014.27
2018-06-22T04:16:56.224Z,1014.23
2018-06-22T04:17:22.361Z,1014.2
2018-06-22T04:17:48.520Z,1014.2
2018-06-22T04:18:14.692Z,1014.22
2018-06-22T04:18:40.825Z,1014.22
2018-06-22T04:19:06.964Z,1014.22
2018-06-22T04:19:33.105Z,1014.18
2018-06-22T04:19:59.266Z,1014.23
2018-06-22T04:20:25.406Z,1014.22
2018-06-22T04:20:51.571Z,1014.23
2018-06-22T04:21:17.739Z,1014.21
2018-06-22T04:21:43.878Z,1014.22
2018-06-22T04:22:10.021Z,1014.27
2018-06-22T04:22:36.172Z,1014.21
2018-06-22T04:23:02.338Z,1014.21
2018-06-22T04:23:28.473Z,1014.19
2018-06-22T04:23:54.615Z,1014.15
2018-06-22T04:24:20.774Z,1014.2
2018-06-22T04:24:46.887Z,1014.17
2018-06-22T04:25:13.047Z,1014.15
2018-06-22T04:25:39.189Z,1014.19
2018-06-22T04:26:05.325Z,1014.18
2018-06-22T04:26:31.463Z,1014.24
2018-06-22T04:26:57.601Z,1014.2
2018-06-22T04:27:23.738Z,1014.19
2018-06-22T04:27:49.879Z,1014.2
2018-06-22T04:28:16.014Z,1014.25
2018-06-22T04:28:42.159Z,1014.26
2018-06-22T04:29:08.293Z,1014.3
2018-06-22T04:29:34.458Z,1014.3
2018-06-22T04:30:00.592Z,1014.25
2018-06-22T04:30:26.729Z,1014.29
2018-06-22T04:30:52.867Z,1014.3
2018-06-22T04:31:19.000Z,1014.3
2018-06-22T04:31:45.142Z,1014.3
2018-06-22T04:32:11.284Z,1014.37
2018-06-22T04:32:37.426Z,1014.32
2018-06-22T04:33:03.565Z,1014.35
2018-06-22T04:33:29.699Z,1014.39
2018-06-22T04:33:55.840Z,1014.39
2018-06-22T04:34:21.972Z,1014.33
2018-06-22T04:34:48.101Z,1014.39
2018-06-22T04:35:14.249Z,1014.4
2018-06-22T04:35:40.385Z,1014.4
2018-06-22T04:36:06.521Z,1014.38
2018-06-22T04:36:32.659Z,1014.34
2018-06-22T04:36:58.802Z,1014.4
2018-06-22T04:37:24.947Z,1014.42
2018-06-22T04:37:51.112Z,1014.43
2018-06-22T04:38:17.274Z,1014.41
2018-06-22T04:38:43.525Z,1014.41
2018-06-22T04:39:09.616Z,1014.39
2018-06-22T04:39:35.758Z,1014.44
2018-06-22T04:40:01.897Z,1014.42
2018-06-22T04:40:28.033Z,1014.42
2018-06-22T04:40:54.170Z,1014.46
2018-06-22T04:41:20.310Z,1014.44
2018-06-22T04:41:46.450Z,1014.48
2018-06-22T04:42:12.589Z,1014.49
2018-06-22T04:42:38.735Z,1014.47
2018-06-22T04:43:04.875Z,1014.46
2018-06-22T04:43:31.029Z,1014.52
2018-06-22T04:43:57.200Z,1014.51
2018-06-22T04:44:23.338Z,1014.53
2018-06-22T04:44:49.500Z,1014.48
2018-06-22T04:45:15.643Z,1014.56
2018-06-22T04:45:41.783Z,1014.56
2018-06-22T04:46:07.922Z,1014.52
2018-06-22T04:46:34.053Z,1014.58
2018-06-22T04:47:00.196Z,1014.56
2018-06-22T04:47:26.341Z,1014.54
2018-06-22T04:47:52.478Z,1014.55
2018-06-22T04:48:18.613Z,1014.57
2018-06-22T04:48:44.756Z,1014.57
2018-06-22T04:49:10.920Z,1014.57
2018-06-22T04:49:37.065Z,1014.57
2018-06-22T04:50:03.238Z,1014.57
2018-06-22T04:50:29.409Z,1014.55
2018-06-22T04:50:55.578Z,1014.62
2018-06-22T04:51:21.715Z,1014.52
2018-06-22T04:51:47.852Z,1014.56
2018-06-22T04:52:13.991Z,1014.54
2018-06-22T04:52:40.136Z,1014.6
2018-06-22T04:53:06.289Z,1014.58
2018-06-22T04:53:32.430Z,1014.65
2018-06-22T04:53:58.563Z,1014.61
2018-06-22T04:54:24.702Z,1014.72
2018-06-22T04:54:50.845Z,1014.68
2018-06-22T04:55:16.982Z,1014.68
2018-06-22T04:55:43.114Z,1014.68
2018-06-22T04:56:09.273Z,1014.67
2018-06-22T04:56:35.410Z,1014.68
2018-06-22T04:57:01.570Z,1014.74
2018-06-22T04:57:27.705Z,1014.67
2018-06-22T04:57:53.838Z,1014.58
2018-06-22T04:58:19.975Z,1014.66
2018-06-22T04:58:46.118Z,1014.63
2018-06-22T04:59:12.276Z,1014.62
2018-06-22T04:59:38.414Z,1014.65
2018-06-22T05:00:04.553Z,1014.65
2018-06-22T05:00:30.741Z,1014.68
2018-06-22T05:00:56.902Z,1014.6
2018-06-22T05:01:23.069Z,1014.66
2018-06-22T05:01:49.246Z,1014.59
2018-06-22T05:02:15.408Z,1014.62
2018-06-22T05:02:41.549Z,1014.64
2018-06-22T05:03:07.692Z,1014.64
2018-06-22T05:03:33.881Z,1014.66
2018-06-22T05:04:00.022Z,1014.7
2018-06-22T05:04:26.156Z,1014.72
2018-06-22T05:04:52.296Z,1014.74
2018-06-22T05:05:18.457Z,1014.75
2018-06-22T05:05:44.593Z,1014.75
2018-06-22T05:06:10.734Z,1014.78
2018-06-22T05:06:36.862Z,1014.74
2018-06-22T05:07:03.000Z,1014.68
2018-06-22T05:07:29.161Z,1014.75
2018-06-22T05:07:55.308Z,1014.74
2018-06-22T05:08:21.439Z,1014.71
2018-06-22T05:08:47.580Z,1014.69
2018-06-22T05:09:13.720Z,1014.67
2018-06-22T05:09:39.893Z,1014.72
2018-06-22T05:10:06.031Z,1014.7
2018-06-22T05:10:32.216Z,1014.74
2018-06-22T05:10:58.377Z,1014.71
2018-06-22T05:11:24.510Z,1014.77
2018-06-22T05:11:50.645Z,1014.7
2018-06-22T05:12:16.785Z,1014.74
2018-06-22T05:12:42.925Z,1014.72
2018-06-22T05:13:09.089Z,1014.8
2018-06-22T05:13:35.230Z,1014.75
2018-06-22T05:14:01.359Z,1014.88
2018-06-22T05:14:27.500Z,1014.8
2018-06-22T05:14:53.636Z,1014.79
2018-06-22T05:15:19.774Z,1014.84
2018-06-22T05:15:45.978Z,1014.91
2018-06-22T05:16:12.076Z,1014.82
2018-06-22T05:16:38.209Z,1014.85
2018-06-22T05:17:04.352Z,1014.85